Corvallis, OR

2:04 PM PDT on August 23, 2016 (GMT -0700)
Corvallis Municipal

Weather History for KCVO - November, 2013

Change the Weather History Date:

Saturday, November 16, 2013

  Actual Average Record
Temperature  
Mean Temperature 48 °F -  
Max Temperature 51 °F 51 °F 60 °F (2004)
Min Temperature 44 °F 38 °F 19 °F (2014)
Degree Days  
Heating Degree Days 18    
Moisture  
Dew Point 41 °F    
Average Humidity 79    
Maximum Humidity 93    
Minimum Humidity 62    
Precipitation  
Precipitation 0.06 in - - ()
Sea Level Pressure  
Sea Level Pressure 29.77 in    
Wind  
Wind Speed 10 mph (WSW)    
Max Wind Speed 20 mph    
Max Gust Speed 22 mph    
Visibility 10 miles    
Events      
Averages and records for this station are not official NWS values.
T = Trace of Precipitation, MM = Missing Value Source: NWS Daily Summary

Daily Weather History Graph

Daily Weather History Graph

Search for Another Location

Airport or City:

Trip Planner

Search our weather history database for the weather conditions in past years. The results will help you decide how hot, cold, wet, or windy it might be!

Date:

Astronomy

Nov. 16, 2013 Rise Set
Actual Time 7:11 AM PST 4:44 PM PST
Civil Twilight 6:39 AM PST 5:15 PM PST
Nautical Twilight 6:04 AM PST 5:51 PM PST
Astronomical Twilight 5:29 AM PST 6:25 PM PST
Moon 4:24 PM PST (11/16) 6:11 AM PST (11/16)
Length of Visible Light 10h 36m
Length of Day
9h 33m
Waxing Gibbous, 99% of the Moon is Illuminated
Nov 16
Waxing Gibbous
Nov 17
Full
Nov 25
Last Quarter
Dec 2
New
Dec 9
First Quarter

Hourly Weather History & Observations

Time (PST) Temp. Windchill Dew Point Humidity Pressure Visibility Wind Dir Wind Speed Gust Speed Precip Events Conditions
12:15 AM 46.4 °F 39.0 °F 44.6 °F 93% 29.66 in 10.0 mi South 19.6 mph - N/A   Overcast
12:35 AM 46.4 °F 39.5 °F 44.6 °F 93% 29.64 in 10.0 mi South 17.3 mph 21.9 mph N/A   Overcast
12:55 AM 46.4 °F 39.5 °F 44.6 °F 93% 29.65 in 8.0 mi South 17.3 mph - N/A   Overcast
1:15 AM 46.4 °F 39.8 °F 44.6 °F 93% 29.64 in 6.0 mi South 16.1 mph - 0.01 in   Overcast
1:35 AM 46.4 °F 42.4 °F 44.6 °F 93% 29.64 in 9.0 mi South 8.1 mph - 0.01 in   Overcast
1:55 AM 46.4 °F 42.9 °F 44.6 °F 93% 29.63 in 10.0 mi South 6.9 mph - 0.01 in   Overcast
2:15 AM 48.2 °F - 44.6 °F 87% 29.63 in 10.0 mi Calm Calm - N/A   Mostly Cloudy
2:35 AM 48.2 °F - 46.4 °F 93% 29.64 in 5.0 mi West 9.2 mph - 0.01 in   Overcast
2:55 AM 48.2 °F - 44.6 °F 87% 29.64 in 10.0 mi WSW 5.8 mph - 0.01 in   Overcast
3:15 AM 48.2 °F - 44.6 °F 87% 29.66 in 7.0 mi West 5.8 mph - 0.01 in   Mostly Cloudy
3:35 AM 48.2 °F - 44.6 °F 87% 29.67 in 5.0 mi NW 11.5 mph - 0.03 in   Overcast
3:55 AM 48.2 °F - 42.8 °F 82% 29.66 in 10.0 mi WNW 11.5 mph 18.4 mph 0.04 in   Overcast
4:15 AM 48.2 °F - 42.8 °F 82% 29.66 in 10.0 mi West 9.2 mph - N/A   Overcast
4:35 AM 46.4 °F 41.9 °F 41.0 °F 81% 29.67 in 10.0 mi West 9.2 mph - N/A   Mostly Cloudy
4:55 AM 48.2 °F - 42.8 °F 82% 29.69 in 10.0 mi West 11.5 mph 19.6 mph N/A   Mostly Cloudy
5:15 AM 46.4 °F 42.9 °F 41.0 °F 81% 29.69 in 10.0 mi West 6.9 mph - N/A   Mostly Cloudy
5:35 AM 46.4 °F 45.2 °F 41.0 °F 81% 29.69 in 10.0 mi West 3.5 mph - N/A   Mostly Cloudy
5:55 AM 46.4 °F 42.9 °F 41.0 °F 81% 29.70 in 10.0 mi West 6.9 mph - N/A   Overcast
6:15 AM 46.4 °F 41.9 °F 41.0 °F 81% 29.71 in 10.0 mi WSW 9.2 mph - N/A   Mostly Cloudy
6:35 AM 46.4 °F 41.9 °F 39.2 °F 76% 29.71 in 10.0 mi SW 9.2 mph - N/A   Overcast
6:55 AM 46.4 °F 42.9 °F 39.2 °F 76% 29.72 in 10.0 mi WSW 6.9 mph - N/A   Mostly Cloudy
7:15 AM 44.6 °F 40.7 °F 39.2 °F 81% 29.73 in 10.0 mi WSW 6.9 mph - N/A   Mostly Cloudy
7:35 AM 44.6 °F 40.7 °F 39.2 °F 81% 29.73 in 10.0 mi WSW 6.9 mph - N/A   Overcast
7:55 AM 44.6 °F 41.4 °F 41.0 °F 87% 29.74 in 10.0 mi SW 5.8 mph - N/A   Overcast
8:15 AM 46.4 °F 42.4 °F 41.0 °F 81% 29.76 in 7.0 mi WNW 8.1 mph 17.3 mph N/A   Overcast
8:35 AM 46.4 °F 42.4 °F 42.8 °F 87% 29.75 in 10.0 mi SW 8.1 mph - N/A   Mostly Cloudy
8:55 AM 46.4 °F 41.5 °F 42.8 °F 87% 29.75 in 10.0 mi SSW 10.4 mph - N/A   Clear
9:15 AM 48.2 °F - 42.8 °F 82% 29.76 in 10.0 mi SW 9.2 mph - N/A   Scattered Clouds
9:35 AM 48.2 °F - 41.0 °F 76% 29.77 in 10.0 mi WSW 10.4 mph - N/A   Overcast
9:55 AM 48.2 °F - 44.6 °F 87% 29.78 in 10.0 mi WSW 11.5 mph - N/A   Mostly Cloudy
10:15 AM 50.0 °F - 42.8 °F 76% 29.78 in 10.0 mi SW 10.4 mph - N/A   Mostly Cloudy
10:35 AM 51.8 °F - 42.8 °F 71% 29.78 in 10.0 mi WSW 9.2 mph - N/A   Clear
10:55 AM 50.0 °F - 42.8 °F 76% 29.79 in 10.0 mi West 6.9 mph - N/A   Mostly Cloudy
11:15 AM 50.0 °F - 41.0 °F 71% 29.78 in 10.0 mi SW 10.4 mph - N/A   Overcast
11:35 AM 50.0 °F - 39.2 °F 66% 29.78 in 10.0 mi SW 10.4 mph - N/A   Mostly Cloudy
11:55 AM 51.8 °F - 39.2 °F 62% 29.78 in 10.0 mi WSW 9.2 mph - N/A   Mostly Cloudy
12:15 PM 50.0 °F - 39.2 °F 66% 29.78 in 10.0 mi WSW 10.4 mph - N/A   Overcast
12:35 PM 51.8 °F - 41.0 °F 67% 29.78 in 10.0 mi West 11.5 mph - N/A   Mostly Cloudy
12:55 PM 51.8 °F - 41.0 °F 67% 29.78 in 10.0 mi West 11.5 mph - N/A   Scattered Clouds
1:15 PM 51.8 °F - 41.0 °F 67% 29.78 in 10.0 mi West 6.9 mph - N/A   Scattered Clouds
1:35 PM 51.8 °F - 41.0 °F 67% 29.78 in 10.0 mi West 12.7 mph - N/A   Scattered Clouds
1:55 PM 51.8 °F - 39.2 °F 62% 29.79 in 10.0 mi WSW 5.8 mph - N/A   Scattered Clouds
2:15 PM 51.8 °F - 39.2 °F 62% 29.78 in 10.0 mi West 11.5 mph - N/A   Mostly Cloudy
2:35 PM 51.8 °F - 41.0 °F 67% 29.79 in 10.0 mi West 15.0 mph 19.6 mph N/A   Overcast
2:55 PM 50.0 °F - 39.2 °F 66% 29.80 in 10.0 mi WSW 10.4 mph - N/A   Overcast
3:15 PM 50.0 °F - 41.0 °F 71% 29.80 in 10.0 mi WSW 11.5 mph - N/A   Mostly Cloudy
3:35 PM 50.0 °F - 39.2 °F 66% 29.81 in 10.0 mi WSW 9.2 mph - N/A   Overcast
3:55 PM 48.2 °F - 42.8 °F 82% 29.82 in 10.0 mi West 9.2 mph - N/A   Overcast
4:15 PM 48.2 °F - 41.0 °F 76% 29.82 in 10.0 mi WSW 10.4 mph - N/A   Overcast
4:35 PM 48.2 °F - 39.2 °F 71% 29.82 in 10.0 mi SW 10.4 mph - N/A   Overcast
4:55 PM 48.2 °F - 39.2 °F 71% 29.83 in 10.0 mi WSW 10.4 mph - N/A   Overcast
5:15 PM 48.2 °F - 39.2 °F 71% 29.84 in 10.0 mi WSW 9.2 mph - N/A   Overcast
5:35 PM 46.4 °F 41.9 °F 39.2 °F 76% 29.84 in 10.0 mi WSW 9.2 mph - N/A   Overcast
5:55 PM 48.2 °F - 39.2 °F 71% 29.85 in 10.0 mi SW 10.4 mph - N/A   Overcast
6:15 PM 48.2 °F - 39.2 °F 71% 29.85 in 10.0 mi SW 8.1 mph - N/A   Overcast
6:35 PM 46.4 °F 43.5 °F 39.2 °F 76% 29.85 in 10.0 mi SSW 5.8 mph - N/A   Overcast
6:55 PM 46.4 °F 42.9 °F 41.0 °F 81% 29.86 in 10.0 mi South 6.9 mph - N/A   Overcast
7:15 PM 46.4 °F 43.5 °F 41.0 °F 81% 29.86 in 10.0 mi SW 5.8 mph - N/A   Overcast
7:35 PM 46.4 °F 42.9 °F 41.0 °F 81% 29.86 in 10.0 mi SW 6.9 mph - N/A   Overcast
7:55 PM 46.4 °F 42.9 °F 41.0 °F 81% 29.87 in 10.0 mi West 6.9 mph - N/A   Overcast
8:15 PM 46.4 °F 43.5 °F 41.0 °F 81% 29.87 in 10.0 mi NW 5.8 mph - N/A   Overcast
8:35 PM 44.6 °F 42.2 °F 41.0 °F 87% 29.87 in 10.0 mi South 4.6 mph - N/A   Overcast
8:55 PM 46.4 °F 41.9 °F 41.0 °F 81% 29.88 in 10.0 mi SSW 9.2 mph - N/A   Overcast
9:15 PM 46.4 °F 42.9 °F 41.0 °F 81% 29.88 in 10.0 mi SW 6.9 mph - N/A   Overcast
9:35 PM 46.4 °F 43.5 °F 41.0 °F 81% 29.89 in 10.0 mi SSW 5.8 mph - N/A   Overcast
9:55 PM 46.4 °F 43.5 °F 41.0 °F 81% 29.89 in 10.0 mi SSW 5.8 mph - N/A   Overcast
10:15 PM 46.4 °F 43.5 °F 41.0 °F 81% 29.89 in 10.0 mi SSW 5.8 mph - N/A   Overcast
10:35 PM 46.4 °F 42.9 °F 41.0 °F 81% 29.89 in 10.0 mi SSW 6.9 mph - N/A   Overcast
10:55 PM 44.6 °F 40.2 °F 41.0 °F 87% 29.90 in 10.0 mi SSW 8.1 mph - N/A   Overcast
11:15 PM 46.4 °F 42.9 °F 39.2 °F 76% 29.90 in 10.0 mi WSW 6.9 mph - N/A   Overcast
11:35 PM 44.6 °F 42.2 °F 39.2 °F 81% 29.91 in 10.0 mi SSW 4.6 mph - N/A   Overcast
11:55 PM 44.6 °F 42.2 °F 39.2 °F 81% 29.91 in 10.0 mi SSW 4.6 mph - N/A   Overcast